Albuquerque International Sunport Airport
KABQ : now visible

Airfield :











YOU CAN JOIN US ON...

 
LOGIN :

Register | Disclaimer

   EN    FR    IT 

 









Legend :    VFR   Marginal VFR   IFR   Intensive IFR   Very Intensive IFR
Visi :
Ceiling :
>= 8 km
>= 3000ft
5 to 8 km
1000 to 3000 ft
1500m to 5 km
500 to 1000 ft
800 to 1500m
200 to 500 ft
< 800m
< 200 ft
Symbols :   Thunderstorms  Fog  Heavy snow  Heavy precipitations  Wind > 20 kt






- Airport Elevation : 5355 ft
- IATA code : ABQ


KABQ - Albuquerque International Sunport

CURRENT METAR :
  • 011752Z 24008KT 10SM SCT130 SCT150 SCT250 18/M07 A2989 RMK AO2 SLP060 ACSL NE AND W T01831072 10189 20094 58008

EXPIRED METARs :
  • 011652Z 21009KT 10SM BKN130 BKN150 BKN250 18/M07 A2991 RMK AO2 SLP067 T01781067
  • 011552Z 22006KT 10SM SCT130 SCT250 BKN300 16/M07 A2991 RMK AO2 SLP074 T01611067

TAF KABQ
Valid from the 01 at 18:00 until the 02 at 18:00 UTC


011732Z 0118/0218 23010G18KT P6SM BKN150
FM012000 24016G25KT P6SM BKN120
FM020200 24008KT P6SM SCT090 BKN120
FM021000 16007KT P6SM SCT120
FM021600 22012G21KT P6SM FEW120



MET'MAP, your aeronautical weather chart ! - Copyright ORBIFLY December 2007 - Disclaimer

ORBIFLY MET'MAP TEAM :

Programming & Development : Alexandra Zaïnal
Concept & original design : Baudouin d'Aumeries
Assistance for programming : Marc-Olivier Méhu
Technical & hardware support : Manuel Goepfert

Contact : metmap@orbifly.com




SOURCES & CREDITS :

   NOAA       Earth
Advisory